4MS8 weather

Casino Center Heliport
Tunica, Mississippi, United States

Public forecast

Using degrees Fahrenheit for public forecast. Weather courtesy of forecast.io.

Closest aviation weather report (METAR) to Casino Center Heliport

Closest report is Tunica Municipal Airport, 9.6 nm (17.8 km) S. Retrieved 2019/10/15 02:35 UTC (24 minutes ago):

KUTA 150235Z AUTO 00000KT 10SM 15/12 A3008 RMK AO2 TSNO

Closest aviation forecast (TAF) to Casino Center Heliport

Closest forecast is Memphis International Airport, 21.1 nm (39.2 km) NE. Retrieved 2019-10-15 00:28 UTC (3 hours ago):

TAF KMEM 142325Z 1500/1606 17004KT P6SM BKN250 FM151200 16004KT P6SM VCSH BKN025 BKN040 FM151600 18006KT P6SM SCT025 BKN035 FM152000 19008KT P6SM VCSH SCT025 OVC040 FM160400 VRB03KT 4SM -SHRA BR SCT007 BKN015